sensor_id;sensor_type;location;lat;lon;timestamp;pressure;altitude;pressure_sealevel;temperature;humidity
59190;BME280;50749;51.636;4.948;2022-07-23T00:01:34;101962.88;;;22.47;51.95
59190;BME280;50749;51.636;4.948;2022-07-23T00:04:00;101960.44;;;22.45;51.96
59190;BME280;50749;51.636;4.948;2022-07-23T00:06:26;101966.38;;;22.43;51.60
59190;BME280;50749;51.636;4.948;2022-07-23T00:08:52;101960.00;;;22.43;52.04
59190;BME280;50749;51.636;4.948;2022-07-23T00:11:18;101962.78;;;22.43;51.76
59190;BME280;50749;51.636;4.948;2022-07-23T00:13:44;101948.03;;;22.42;51.58
59190;BME280;50749;51.636;4.948;2022-07-23T00:16:10;101949.22;;;22.41;51.72
59190;BME280;50749;51.636;4.948;2022-07-23T00:18:35;101947.59;;;22.40;51.79
59190;BME280;50749;51.636;4.948;2022-07-23T00:21:01;101952.81;;;22.42;52.07
59190;BME280;50749;51.636;4.948;2022-07-23T00:23:27;101955.59;;;22.42;52.07
59190;BME280;50749;51.636;4.948;2022-07-23T00:25:54;101959.56;;;22.41;51.90
59190;BME280;50749;51.636;4.948;2022-07-23T00:28:20;101959.19;;;22.42;51.85
59190;BME280;50749;51.636;4.948;2022-07-23T00:30:46;101964.75;;;22.42;51.82
59190;BME280;50749;51.636;4.948;2022-07-23T00:33:13;101954.00;;;22.41;52.01
59190;BME280;50749;51.636;4.948;2022-07-23T00:35:40;101949.59;;;22.40;51.57
59190;BME280;50749;51.636;4.948;2022-07-23T00:38:07;101958.31;;;22.38;51.65
59190;BME280;50749;51.636;4.948;2022-07-23T00:40:35;101952.38;;;22.40;51.95
59190;BME280;50749;51.636;4.948;2022-07-23T00:43:01;101951.56;;;22.39;51.58
59190;BME280;50749;51.636;4.948;2022-07-23T00:45:28;101952.72;;;22.38;52.02
59190;BME280;50749;51.636;4.948;2022-07-23T00:47:54;101953.53;;;22.39;51.67
59190;BME280;50749;51.636;4.948;2022-07-23T00:50:20;101951.94;;;22.38;51.82
59190;BME280;50749;51.636;4.948;2022-07-23T00:52:46;101963.09;;;22.38;51.59
59190;BME280;50749;51.636;4.948;2022-07-23T00:55:12;101951.94;;;22.38;51.75
59190;BME280;50749;51.636;4.948;2022-07-23T00:57:39;101955.88;;;22.37;51.53
59190;BME280;50749;51.636;4.948;2022-07-23T01:00:06;101952.72;;;22.38;51.62
59190;BME280;50749;51.636;4.948;2022-07-23T01:02:34;101943.94;;;22.36;51.96
59190;BME280;50749;51.636;4.948;2022-07-23T01:04:59;101937.53;;;22.36;51.83
59190;BME280;50749;51.636;4.948;2022-07-23T01:07:26;101935.13;;;22.34;52.16
59190;BME280;50749;51.636;4.948;2022-07-23T01:09:52;101925.59;;;22.35;51.70
59190;BME280;50749;51.636;4.948;2022-07-23T01:12:18;101926.78;;;22.34;52.00
59190;BME280;50749;51.636;4.948;2022-07-23T01:14:44;101928.75;;;22.34;51.81
59190;BME280;50749;51.636;4.948;2022-07-23T01:17:10;101921.56;;;22.33;51.70
59190;BME280;50749;51.636;4.948;2022-07-23T01:19:35;101926.31;;;22.32;51.61
59190;BME280;50749;51.636;4.948;2022-07-23T01:22:03;101919.94;;;22.32;52.11
59190;BME280;50749;51.636;4.948;2022-07-23T01:24:30;101913.56;;;22.31;51.98
59190;BME280;50749;51.636;4.948;2022-07-23T01:26:55;101914.38;;;22.32;51.64
59190;BME280;50749;51.636;4.948;2022-07-23T01:29:21;101921.94;;;22.31;51.97
59190;BME280;50749;51.636;4.948;2022-07-23T01:31:47;101909.16;;;22.30;51.63
59190;BME280;50749;51.636;4.948;2022-07-23T01:34:13;101908.38;;;22.30;51.64
59190;BME280;50749;51.636;4.948;2022-07-23T01:36:39;101916.72;;;22.30;51.70
59190;BME280;50749;51.636;4.948;2022-07-23T01:39:06;101913.09;;;22.29;51.71
59190;BME280;50749;51.636;4.948;2022-07-23T01:41:33;101915.91;;;22.29;52.13
59190;BME280;50749;51.636;4.948;2022-07-23T01:44:00;101927.88;;;22.30;51.96
59190;BME280;50749;51.636;4.948;2022-07-23T01:46:25;101926.25;;;22.29;51.89
59190;BME280;50749;51.636;4.948;2022-07-23T01:48:51;101917.09;;;22.28;51.67
59190;BME280;50749;51.636;4.948;2022-07-23T01:51:17;101917.88;;;22.29;52.13
59190;BME280;50749;51.636;4.948;2022-07-23T01:53:43;101922.66;;;22.28;51.83
59190;BME280;50749;51.636;4.948;2022-07-23T01:56:09;101922.66;;;22.28;51.88
59190;BME280;50749;51.636;4.948;2022-07-23T01:58:35;101924.25;;;22.29;52.14
59190;BME280;50749;51.636;4.948;2022-07-23T02:01:00;101931.34;;;22.26;51.83
59190;BME280;50749;51.636;4.948;2022-07-23T02:03:26;101931.34;;;22.26;52.18
59190;BME280;50749;51.636;4.948;2022-07-23T02:05:52;101940.84;;;22.25;52.17
59190;BME280;50749;51.636;4.948;2022-07-23T02:08:18;101938.91;;;22.26;51.95
59190;BME280;50749;51.636;4.948;2022-07-23T02:10:44;101936.09;;;22.26;52.07
59190;BME280;50749;51.636;4.948;2022-07-23T02:13:11;101926.13;;;22.25;51.63
59190;BME280;50749;51.636;4.948;2022-07-23T02:15:37;101927.66;;;22.22;52.23
59190;BME280;50749;51.636;4.948;2022-07-23T02:18:02;101926.13;;;22.25;51.98
59190;BME280;50749;51.636;4.948;2022-07-23T02:20:28;101931.25;;;22.23;51.77
59190;BME280;50749;51.636;4.948;2022-07-23T02:22:54;101929.28;;;22.23;51.71
59190;BME280;50749;51.636;4.948;2022-07-23T02:25:20;101934.84;;;22.23;51.75
59190;BME280;50749;51.636;4.948;2022-07-23T02:27:46;101928.13;;;22.24;52.10
59190;BME280;50749;51.636;4.948;2022-07-23T02:30:12;101914.91;;;22.21;51.71
59190;BME280;50749;51.636;4.948;2022-07-23T02:32:38;101924.84;;;22.22;52.05
59190;BME280;50749;51.636;4.948;2022-07-23T02:35:05;101926.84;;;22.22;52.17
59190;BME280;50749;51.636;4.948;2022-07-23T02:37:32;101920.47;;;22.21;51.78
59190;BME280;50749;51.636;4.948;2022-07-23T02:39:58;101924.41;;;22.20;51.69
59190;BME280;50749;51.636;4.948;2022-07-23T02:42:24;101924.41;;;22.20;52.17
59190;BME280;50749;51.636;4.948;2022-07-23T02:44:50;101926.41;;;22.20;52.04
59190;BME280;50749;51.636;4.948;2022-07-23T02:47:16;101931.19;;;22.19;52.26
59190;BME280;50749;51.636;4.948;2022-07-23T02:49:42;101925.59;;;22.19;51.98
59190;BME280;50749;51.636;4.948;2022-07-23T02:52:08;101933.97;;;22.19;51.67
59190;BME280;50749;51.636;4.948;2022-07-23T02:54:36;101939.88;;;22.18;51.68
59190;BME280;50749;51.636;4.948;2022-07-23T02:57:03;101939.88;;;22.18;52.02
59190;BME280;50749;51.636;4.948;2022-07-23T02:59:29;101944.63;;;22.17;51.78
59190;BME280;50749;51.636;4.948;2022-07-23T03:01:55;101935.13;;;22.18;51.67
59190;BME280;50749;51.636;4.948;2022-07-23T03:04:20;101934.69;;;22.16;51.83
59190;BME280;50749;51.636;4.948;2022-07-23T03:06:46;101924.34;;;22.17;51.93
59190;BME280;50749;51.636;4.948;2022-07-23T03:09:12;101926.31;;;22.16;51.68
59190;BME280;50749;51.636;4.948;2022-07-23T03:11:38;101929.09;;;22.16;52.17
59190;BME280;50749;51.636;4.948;2022-07-23T03:14:03;101938.63;;;22.15;52.17
59190;BME280;50749;51.636;4.948;2022-07-23T03:16:29;101939.81;;;22.14;51.81
59190;BME280;50749;51.636;4.948;2022-07-23T03:18:55;101934.25;;;22.14;52.16
59190;BME280;50749;51.636;4.948;2022-07-23T03:21:21;101938.19;;;22.13;51.64
59190;BME280;50749;51.636;4.948;2022-07-23T03:23:46;101937.03;;;22.14;51.57
59190;BME280;50749;51.636;4.948;2022-07-23T03:26:12;101945.75;;;22.13;51.67
59190;BME280;50749;51.636;4.948;2022-07-23T03:28:38;101944.91;;;22.12;52.02
59190;BME280;50749;51.636;4.948;2022-07-23T03:31:03;101946.09;;;22.11;51.94
59190;BME280;50749;51.636;4.948;2022-07-23T03:33:29;101946.09;;;22.11;51.72
59190;BME280;50749;51.636;4.948;2022-07-23T03:35:55;101948.88;;;22.11;51.77
59190;BME280;50749;51.636;4.948;2022-07-23T03:38:21;101948.88;;;22.11;52.18
59190;BME280;50749;51.636;4.948;2022-07-23T03:40:47;101949.25;;;22.10;51.86
59190;BME280;50749;51.636;4.948;2022-07-23T03:43:12;101950.03;;;22.10;51.55
59190;BME280;50749;51.636;4.948;2022-07-23T03:45:38;101941.69;;;22.10;52.18
59190;BME280;50749;51.636;4.948;2022-07-23T03:48:04;101942.88;;;22.09;51.75
59190;BME280;50749;51.636;4.948;2022-07-23T03:50:30;101945.66;;;22.09;51.61
59190;BME280;50749;51.636;4.948;2022-07-23T03:52:55;101949.59;;;22.08;52.01
59190;BME280;50749;51.636;4.948;2022-07-23T03:55:21;101949.50;;;22.04;51.61
59190;BME280;50749;51.636;4.948;2022-07-23T03:57:47;101954.38;;;22.07;51.72
59190;BME280;50749;51.636;4.948;2022-07-23T04:00:13;101957.16;;;22.07;52.16
59190;BME280;50749;51.636;4.948;2022-07-23T04:02:40;101959.94;;;22.07;52.08
59190;BME280;50749;51.636;4.948;2022-07-23T04:05:06;101959.09;;;22.07;52.08
59190;BME280;50749;51.636;4.948;2022-07-23T04:07:32;101964.69;;;22.07;51.73
59190;BME280;50749;51.636;4.948;2022-07-23T04:09:58;101963.88;;;22.06;52.11
59190;BME280;50749;51.636;4.948;2022-07-23T04:12:24;101963.06;;;22.06;51.97
59190;BME280;50749;51.636;4.948;2022-07-23T04:14:49;101967.47;;;22.07;52.01
59190;BME280;50749;51.636;4.948;2022-07-23T04:17:15;101958.66;;;22.05;52.11
59190;BME280;50749;51.636;4.948;2022-07-23T04:19:41;101968.28;;;22.07;51.74
59190;BME280;50749;51.636;4.948;2022-07-23T04:22:10;101961.44;;;22.05;52.10
59190;BME280;50749;51.636;4.948;2022-07-23T04:24:37;101964.22;;;22.05;51.83
59190;BME280;50749;51.636;4.948;2022-07-23T04:27:03;101969.44;;;22.06;52.00
59190;BME280;50749;51.636;4.948;2022-07-23T04:29:29;101974.22;;;22.06;51.82
59190;BME280;50749;51.636;4.948;2022-07-23T04:31:55;101975.81;;;22.07;52.08
59190;BME280;50749;51.636;4.948;2022-07-23T04:34:20;101975.00;;;22.06;52.10
59190;BME280;50749;51.636;4.948;2022-07-23T04:36:47;101981.38;;;22.07;51.59
59190;BME280;50749;51.636;4.948;2022-07-23T04:39:13;101976.63;;;22.07;51.67
59190;BME280;50749;51.636;4.948;2022-07-23T04:41:39;101973.03;;;22.07;52.17
59190;BME280;50749;51.636;4.948;2022-07-23T04:44:04;101977.44;;;22.08;51.89
59190;BME280;50749;51.636;4.948;2022-07-23T04:46:30;101979.78;;;22.06;51.71
59190;BME280;50749;51.636;4.948;2022-07-23T04:48:56;101977.00;;;22.06;51.57
59190;BME280;50749;51.636;4.948;2022-07-23T04:51:22;101978.94;;;22.05;52.04
59190;BME280;50749;51.636;4.948;2022-07-23T04:53:48;101982.22;;;22.07;51.94
59190;BME280;50749;51.636;4.948;2022-07-23T04:56:13;101983.91;;;22.12;51.85
59190;BME280;50749;51.636;4.948;2022-07-23T04:58:39;101986.78;;;22.16;51.96
59190;BME280;50749;51.636;4.948;2022-07-23T05:01:05;101989.56;;;22.16;52.27
59190;BME280;50749;51.636;4.948;2022-07-23T05:03:30;101990.91;;;22.22;51.94
59190;BME280;50749;51.636;4.948;2022-07-23T05:05:56;101993.78;;;22.25;51.56
59190;BME280;50749;51.636;4.948;2022-07-23T05:08:22;101992.63;;;22.26;51.90
59190;BME280;50749;51.636;4.948;2022-07-23T05:10:48;102000.97;;;22.26;52.28
59190;BME280;50749;51.636;4.948;2022-07-23T05:13:15;101991.00;;;22.25;52.48
59190;BME280;50749;51.636;4.948;2022-07-23T05:15:42;101987.03;;;22.26;52.39
59190;BME280;50749;51.636;4.948;2022-07-23T05:18:08;101987.03;;;22.26;52.50
59190;BME280;50749;51.636;4.948;2022-07-23T05:20:34;101994.72;;;22.30;52.22
59190;BME280;50749;51.636;4.948;2022-07-23T05:23:00;102000.72;;;22.32;52.42
59190;BME280;50749;51.636;4.948;2022-07-23T05:25:26;101993.25;;;22.36;52.11
59190;BME280;50749;51.636;4.948;2022-07-23T05:27:51;102007.28;;;22.39;52.07
59190;BME280;50749;51.636;4.948;2022-07-23T05:30:17;101997.31;;;22.38;51.93
59190;BME280;50749;51.636;4.948;2022-07-23T05:32:43;101999.47;;;22.45;52.03
59190;BME280;50749;51.636;4.948;2022-07-23T05:35:09;101999.91;;;22.47;52.40
59190;BME280;50749;51.636;4.948;2022-07-23T05:37:35;102005.56;;;22.51;51.98
59190;BME280;50749;51.636;4.948;2022-07-23T05:40:02;102003.31;;;22.56;51.89
59190;BME280;50749;51.636;4.948;2022-07-23T05:42:28;102010.19;;;22.62;51.59
59190;BME280;50749;51.636;4.948;2022-07-23T05:44:54;102002.75;;;22.67;51.77
59190;BME280;50749;51.636;4.948;2022-07-23T05:47:20;102009.19;;;22.71;52.01
59190;BME280;50749;51.636;4.948;2022-07-23T05:49:45;102003.63;;;22.71;51.53
59190;BME280;50749;51.636;4.948;2022-07-23T05:52:11;102006.84;;;22.73;51.78
59190;BME280;50749;51.636;4.948;2022-07-23T05:54:37;102013.25;;;22.73;51.69
59190;BME280;50749;51.636;4.948;2022-07-23T05:57:03;102014.50;;;22.76;51.76
59190;BME280;50749;51.636;4.948;2022-07-23T05:59:29;102023.69;;;22.76;51.62
59190;BME280;50749;51.636;4.948;2022-07-23T06:01:55;102011.69;;;22.76;51.92
59190;BME280;50749;51.636;4.948;2022-07-23T06:04:21;102024.47;;;22.77;52.05
59190;BME280;50749;51.636;4.948;2022-07-23T06:06:47;102012.53;;;22.76;52.08
59190;BME280;50749;51.636;4.948;2022-07-23T06:09:12;102016.56;;;22.79;51.75
59190;BME280;50749;51.636;4.948;2022-07-23T06:11:40;102025.34;;;22.81;51.81
59190;BME280;50749;51.636;4.948;2022-07-23T06:14:06;102015.84;;;22.82;51.77
59190;BME280;50749;51.636;4.948;2022-07-23T06:16:31;102015.41;;;22.80;52.04
59190;BME280;50749;51.636;4.948;2022-07-23T06:18:57;102015.03;;;22.81;51.69
59190;BME280;50749;51.636;4.948;2022-07-23T06:21:23;102007.03;;;22.80;52.26
59190;BME280;50749;51.636;4.948;2022-07-23T06:23:49;102014.56;;;22.79;51.96
59190;BME280;50749;51.636;4.948;2022-07-23T06:26:14;102018.63;;;22.82;51.66
59190;BME280;50749;51.636;4.948;2022-07-23T06:28:40;102014.38;;;22.88;51.52
59190;BME280;50749;51.636;4.948;2022-07-23T06:31:06;102009.09;;;22.83;51.70
59190;BME280;50749;51.636;4.948;2022-07-23T06:33:33;102021.06;;;22.68;52.20
59190;BME280;50749;51.636;4.948;2022-07-23T06:35:59;102022.19;;;22.47;52.15
59190;BME280;50749;51.636;4.948;2022-07-23T06:38:25;102019.06;;;22.33;52.59
59190;BME280;50749;51.636;4.948;2022-07-23T06:40:51;102029.38;;;22.16;52.98
59190;BME280;50749;51.636;4.948;2022-07-23T06:43:17;102017.50;;;22.03;53.44
59190;BME280;50749;51.636;4.948;2022-07-23T06:45:42;102025.75;;;22.00;54.05
59190;BME280;50749;51.636;4.948;2022-07-23T06:48:08;102014.09;;;21.94;54.27
59190;BME280;50749;51.636;4.948;2022-07-23T06:50:34;102013.06;;;21.86;54.45
59190;BME280;50749;51.636;4.948;2022-07-23T06:53:00;102018.91;;;21.81;54.69
59190;BME280;50749;51.636;4.948;2022-07-23T06:55:26;102021.25;;;21.79;54.53
59190;BME280;50749;51.636;4.948;2022-07-23T06:57:52;102017.75;;;21.82;54.83
59190;BME280;50749;51.636;4.948;2022-07-23T07:00:18;102008.56;;;21.82;54.68
59190;BME280;50749;51.636;4.948;2022-07-23T07:02:43;102013.34;;;21.81;55.08
59190;BME280;50749;51.636;4.948;2022-07-23T07:05:09;102029.16;;;21.77;55.09
59190;BME280;50749;51.636;4.948;2022-07-23T07:07:35;102023.09;;;21.75;54.83
59190;BME280;50749;51.636;4.948;2022-07-23T07:10:02;102028.31;;;21.77;55.07
59190;BME280;50749;51.636;4.948;2022-07-23T07:12:28;102029.16;;;21.77;54.81
59190;BME280;50749;51.636;4.948;2022-07-23T07:14:54;102027.88;;;21.75;55.09
59190;BME280;50749;51.636;4.948;2022-07-23T07:17:20;102041.09;;;21.78;54.71
59190;BME280;50749;51.636;4.948;2022-07-23T07:19:45;102045.59;;;21.82;55.14
59190;BME280;50749;51.636;4.948;2022-07-23T07:22:11;102050.91;;;21.87;54.57
59190;BME280;50749;51.636;4.948;2022-07-23T07:24:37;102048.66;;;21.93;54.51
59190;BME280;50749;51.636;4.948;2022-07-23T07:27:03;102047.13;;;21.96;54.77
59190;BME280;50749;51.636;4.948;2022-07-23T07:29:29;102037.97;;;21.95;54.56
59190;BME280;50749;51.636;4.948;2022-07-23T07:31:56;102043.88;;;21.94;54.11
59190;BME280;50749;51.636;4.948;2022-07-23T07:34:22;102049.44;;;21.94;53.57
59190;BME280;50749;51.636;4.948;2022-07-23T07:36:48;102038.31;;;21.94;53.56
59190;BME280;50749;51.636;4.948;2022-07-23T07:39:13;102044.34;;;21.96;53.74
59190;BME280;50749;51.636;4.948;2022-07-23T07:41:40;102040.84;;;21.99;53.58
59190;BME280;50749;51.636;4.948;2022-07-23T07:44:05;102038.88;;;21.99;53.92
59190;BME280;50749;51.636;4.948;2022-07-23T07:46:31;102047.31;;;22.03;53.57
59190;BME280;50749;51.636;4.948;2022-07-23T07:48:57;102047.41;;;22.06;53.56
59190;BME280;50749;51.636;4.948;2022-07-23T07:51:23;102049.03;;;22.07;53.00
59190;BME280;50749;51.636;4.948;2022-07-23T07:53:48;102045.44;;;22.07;52.72
59190;BME280;50749;51.636;4.948;2022-07-23T07:56:14;102041.47;;;22.08;52.97
59190;BME280;50749;51.636;4.948;2022-07-23T07:58:40;102044.72;;;22.10;53.11
59190;BME280;50749;51.636;4.948;2022-07-23T08:01:06;102048.78;;;22.13;52.83
59190;BME280;50749;51.636;4.948;2022-07-23T08:03:32;102056.28;;;22.12;52.89
59190;BME280;50749;51.636;4.948;2022-07-23T08:05:57;102062.00;;;22.16;52.37
59190;BME280;50749;51.636;4.948;2022-07-23T08:08:24;102053.25;;;22.17;52.16
59190;BME280;50749;51.636;4.948;2022-07-23T08:10:50;102052.88;;;22.19;51.95
59190;BME280;50749;51.636;4.948;2022-07-23T08:13:16;102048.59;;;22.21;52.24
59190;BME280;50749;51.636;4.948;2022-07-23T08:15:43;102054.16;;;22.21;52.67
59190;BME280;50749;51.636;4.948;2022-07-23T08:18:09;102056.22;;;22.24;52.27
59190;BME280;50749;51.636;4.948;2022-07-23T08:20:36;102060.75;;;22.29;52.80
59190;BME280;50749;51.636;4.948;2022-07-23T08:23:06;102064.00;;;22.31;52.61
59190;BME280;50749;51.636;4.948;2022-07-23T08:25:38;102058.06;;;22.33;52.28
59190;BME280;50749;51.636;4.948;2022-07-23T08:28:06;102067.31;;;22.37;51.97
59190;BME280;50749;51.636;4.948;2022-07-23T08:30:32;102072.97;;;22.40;51.85
59190;BME280;50749;51.636;4.948;2022-07-23T08:33:08;102073.06;;;22.44;51.67
59190;BME280;50749;51.636;4.948;2022-07-23T08:35:39;102070.63;;;22.42;51.20
59190;BME280;50749;51.636;4.948;2022-07-23T08:38:07;102068.66;;;22.43;50.59
59190;BME280;50749;51.636;4.948;2022-07-23T08:40:35;102055.19;;;22.45;50.82
59190;BME280;50749;51.636;4.948;2022-07-23T08:43:04;102064.06;;;22.51;50.31
59190;BME280;50749;51.636;4.948;2022-07-23T08:45:35;102068.47;;;22.52;50.23
59190;BME280;50749;51.636;4.948;2022-07-23T08:48:02;102061.00;;;22.56;50.29
59190;BME280;50749;51.636;4.948;2022-07-23T08:50:29;102067.03;;;22.58;50.11
59190;BME280;50749;51.636;4.948;2022-07-23T08:52:55;102058.78;;;22.61;50.44
59190;BME280;50749;51.636;4.948;2022-07-23T08:55:22;102070.44;;;22.67;50.53
59190;BME280;50749;51.636;4.948;2022-07-23T08:57:50;102061.00;;;22.72;50.65
59190;BME280;50749;51.636;4.948;2022-07-23T09:00:17;102064.22;;;22.74;50.36
59190;BME280;50749;51.636;4.948;2022-07-23T09:02:45;102063.06;;;22.75;50.27
59190;BME280;50749;51.636;4.948;2022-07-23T09:05:12;102061.81;;;22.72;50.20
59190;BME280;50749;51.636;4.948;2022-07-23T09:08:21;102057.03;;;22.73;50.35
59190;BME280;50749;51.636;4.948;2022-07-23T09:10:56;102064.31;;;22.77;50.88
59190;BME280;50749;51.636;4.948;2022-07-23T09:13:41;102065.56;;;22.80;50.57
59190;BME280;50749;51.636;4.948;2022-07-23T09:21:38;102078.31;;;22.97;50.52
59190;BME280;50749;51.636;4.948;2022-07-23T09:24:11;102070.75;;;22.97;50.32
59190;BME280;50749;51.636;4.948;2022-07-23T09:26:38;102072.44;;;23.02;50.57
59190;BME280;50749;51.636;4.948;2022-07-23T09:29:18;102074.44;;;23.02;50.13
59190;BME280;50749;51.636;4.948;2022-07-23T09:34:14;102076.03;;;23.03;50.15
59190;BME280;50749;51.636;4.948;2022-07-23T09:36:40;102079.63;;;23.03;50.35
59190;BME280;50749;51.636;4.948;2022-07-23T09:39:07;102073.69;;;23.05;49.89
59190;BME280;50749;51.636;4.948;2022-07-23T09:41:40;102068.94;;;23.05;50.59
59190;BME280;50749;51.636;4.948;2022-07-23T09:44:08;102066.75;;;23.14;50.26
59190;BME280;50749;51.636;4.948;2022-07-23T09:46:35;102066.47;;;23.19;50.26
59190;BME280;50749;51.636;4.948;2022-07-23T09:49:10;102071.84;;;23.28;50.24
59190;BME280;50749;51.636;4.948;2022-07-23T09:51:54;102064.38;;;23.32;50.31
59190;BME280;50749;51.636;4.948;2022-07-23T09:54:30;102068.84;;;23.37;50.26
59190;BME280;50749;51.636;4.948;2022-07-23T09:57:00;102070.31;;;23.31;50.15
59190;BME280;50749;51.636;4.948;2022-07-23T09:59:28;102065.47;;;23.28;49.80
59190;BME280;50749;51.636;4.948;2022-07-23T10:01:58;102060.53;;;23.21;50.16
59190;BME280;50749;51.636;4.948;2022-07-23T10:04:27;102062.44;;;23.17;49.94
59190;BME280;50749;51.636;4.948;2022-07-23T10:06:54;102066.75;;;23.14;49.98
59190;BME280;50749;51.636;4.948;2022-07-23T10:09:32;102063.19;;;23.14;49.60
59190;BME280;50749;51.636;4.948;2022-07-23T10:12:04;102065.53;;;23.12;49.73
59190;BME280;50749;51.636;4.948;2022-07-23T10:14:49;102067.50;;;23.11;49.82
59190;BME280;50749;51.636;4.948;2022-07-23T10:17:16;102066.63;;;23.07;50.44
59190;BME280;50749;51.636;4.948;2022-07-23T10:19:43;102075.31;;;23.06;50.48
59190;BME280;50749;51.636;4.948;2022-07-23T10:36:24;102066.84;;;23.18;50.17
59190;BME280;50749;51.636;4.948;2022-07-23T10:39:11;102059.38;;;23.22;49.86
59190;BME280;50749;51.636;4.948;2022-07-23T10:41:41;102059.75;;;23.21;49.92
59190;BME280;50749;51.636;4.948;2022-07-23T10:44:08;102061.44;;;23.25;50.43
59190;BME280;50749;51.636;4.948;2022-07-23T10:47:03;102065.09;;;23.29;50.51
59190;BME280;50749;51.636;4.948;2022-07-23T10:49:48;102063.03;;;23.26;51.39
59190;BME280;50749;51.636;4.948;2022-07-23T10:57:10;102062.16;;;23.22;50.48
59190;BME280;50749;51.636;4.948;2022-07-23T11:02:53;102057.81;;;23.25;50.63
59190;BME280;50749;51.636;4.948;2022-07-23T11:05:25;102062.97;;;23.23;50.75
59190;BME280;50749;51.636;4.948;2022-07-23T11:16:15;102053.22;;;23.32;49.16
59190;BME280;50749;51.636;4.948;2022-07-23T11:31:58;102053.88;;;23.45;48.73
59190;BME280;50749;51.636;4.948;2022-07-23T11:36:53;102057.47;;;23.46;48.86
59190;BME280;50749;51.636;4.948;2022-07-23T11:39:20;102051.91;;;23.46;49.00
59190;BME280;50749;51.636;4.948;2022-07-23T11:41:46;102059.47;;;23.45;48.15
59190;BME280;50749;51.636;4.948;2022-07-23T11:44:33;102052.63;;;23.43;48.33
59190;BME280;50749;51.636;4.948;2022-07-23T11:47:05;102059.38;;;23.42;47.52
59190;BME280;50749;51.636;4.948;2022-07-23T11:49:31;102050.56;;;23.40;47.87
59190;BME280;50749;51.636;4.948;2022-07-23T11:54:34;102045.03;;;23.43;47.17
59190;BME280;50749;51.636;4.948;2022-07-23T11:57:01;102047.84;;;23.43;46.94
59190;BME280;50749;51.636;4.948;2022-07-23T11:59:30;102044.63;;;23.41;47.63
59190;BME280;50749;51.636;4.948;2022-07-23T12:02:01;102041.09;;;23.44;47.54
59190;BME280;50749;51.636;4.948;2022-07-23T12:04:43;102040.72;;;23.46;47.97
59190;BME280;50749;51.636;4.948;2022-07-23T12:07:31;102028.09;;;23.52;47.95
59190;BME280;50749;51.636;4.948;2022-07-23T12:09:59;102026.19;;;23.56;48.42
59190;BME280;50749;51.636;4.948;2022-07-23T12:12:40;102031.81;;;23.60;49.23
59190;BME280;50749;51.636;4.948;2022-07-23T12:15:11;102024.25;;;23.60;49.72
59190;BME280;50749;51.636;4.948;2022-07-23T12:17:39;102025.56;;;23.66;49.68
59190;BME280;50749;51.636;4.948;2022-07-23T12:20:12;102031.66;;;23.72;50.43
59190;BME280;50749;51.636;4.948;2022-07-23T12:22:47;102028.50;;;23.73;50.25
59190;BME280;50749;51.636;4.948;2022-07-23T12:25:16;102028.88;;;23.72;50.32
59190;BME280;50749;51.636;4.948;2022-07-23T12:27:43;102016.91;;;23.71;50.02
59190;BME280;50749;51.636;4.948;2022-07-23T12:30:27;102029.25;;;23.70;50.38
59190;BME280;50749;51.636;4.948;2022-07-23T12:32:55;102025.69;;;23.73;50.02
59190;BME280;50749;51.636;4.948;2022-07-23T12:35:23;102024.16;;;23.76;50.36
59190;BME280;50749;51.636;4.948;2022-07-23T12:37:51;102024.22;;;23.80;50.96
59190;BME280;50749;51.636;4.948;2022-07-23T12:40:55;102023.81;;;23.78;50.63
59190;BME280;50749;51.636;4.948;2022-07-23T12:45:52;102024.53;;;23.74;50.44
59190;BME280;50749;51.636;4.948;2022-07-23T12:50:52;102019.69;;;23.71;49.53
59190;BME280;50749;51.636;4.948;2022-07-23T12:55:50;102021.69;;;23.71;50.13
59190;BME280;50749;51.636;4.948;2022-07-23T12:58:20;102016.91;;;23.71;49.30
59190;BME280;50749;51.636;4.948;2022-07-23T13:00:58;102020.06;;;23.70;49.21
59190;BME280;50749;51.636;4.948;2022-07-23T13:03:39;102024.03;;;23.69;49.25
59190;BME280;50749;51.636;4.948;2022-07-23T13:06:10;102008.81;;;23.66;49.28
59190;BME280;50749;51.636;4.948;2022-07-23T13:08:38;102008.03;;;23.66;48.76
59190;BME280;50749;51.636;4.948;2022-07-23T13:11:05;102012.03;;;23.68;48.73
59190;BME280;50749;51.636;4.948;2022-07-23T13:13:34;102009.72;;;23.70;48.91
59190;BME280;50749;51.636;4.948;2022-07-23T13:16:00;102001.25;;;23.67;48.96
59190;BME280;50749;51.636;4.948;2022-07-23T13:18:27;102009.78;;;23.74;49.65
59190;BME280;50749;51.636;4.948;2022-07-23T13:20:54;102011.75;;;23.73;50.18
59190;BME280;50749;51.636;4.948;2022-07-23T13:23:20;102011.44;;;23.79;50.18
59190;BME280;50749;51.636;4.948;2022-07-23T13:25:46;102007.47;;;23.80;49.79
59190;BME280;50749;51.636;4.948;2022-07-23T13:28:13;102011.06;;;23.80;50.05
59190;BME280;50749;51.636;4.948;2022-07-23T13:30:40;102003.06;;;23.79;50.28
59190;BME280;50749;51.636;4.948;2022-07-23T13:33:06;102003.06;;;23.79;49.59
59190;BME280;50749;51.636;4.948;2022-07-23T13:35:34;101999.91;;;23.80;50.31
59190;BME280;50749;51.636;4.948;2022-07-23T13:38:00;102000.00;;;23.84;49.83
59190;BME280;50749;51.636;4.948;2022-07-23T13:40:26;102005.22;;;23.85;50.18
59190;BME280;50749;51.636;4.948;2022-07-23T13:42:52;102000.09;;;23.87;49.94
59190;BME280;50749;51.636;4.948;2022-07-23T13:45:18;101998.88;;;23.88;50.07
59190;BME280;50749;51.636;4.948;2022-07-23T13:47:44;101986.53;;;23.89;49.67
59190;BME280;50749;51.636;4.948;2022-07-23T13:50:10;101993.31;;;23.88;49.78
59190;BME280;50749;51.636;4.948;2022-07-23T13:52:35;101994.56;;;23.91;49.10
59190;BME280;50749;51.636;4.948;2022-07-23T13:55:02;101994.19;;;23.92;49.17
59190;BME280;50749;51.636;4.948;2022-07-23T13:57:30;101993.34;;;23.92;49.46